sensor_id;sensor_type;location;lat;lon;timestamp;pressure;altitude;pressure_sealevel;temperature;humidity
2841;BME280;53423;49.224;12.074;2022-10-16T00:00:08;97720.25;;;16.32;76.51
2841;BME280;53423;49.224;12.074;2022-10-16T00:02:36;97734.44;;;16.25;75.39
2841;BME280;53423;49.224;12.074;2022-10-16T00:05:06;97743.63;;;16.22;75.51
2841;BME280;53423;49.224;12.074;2022-10-16T00:07:33;97743.78;;;16.14;75.88
2841;BME280;53423;49.224;12.074;2022-10-16T00:10:01;97745.22;;;16.16;75.64
2841;BME280;53423;49.224;12.074;2022-10-16T00:12:29;97741.50;;;16.04;76.45
2841;BME280;53423;49.224;12.074;2022-10-16T00:14:57;97741.66;;;15.90;77.13
2841;BME280;53423;49.224;12.074;2022-10-16T00:17:24;97744.88;;;15.85;77.27
2841;BME280;53423;49.224;12.074;2022-10-16T00:19:52;97754.25;;;15.94;77.19
2841;BME280;53423;49.224;12.074;2022-10-16T00:22:21;97750.81;;;15.94;77.32
2841;BME280;53423;49.224;12.074;2022-10-16T00:24:49;97742.47;;;15.90;76.48
2841;BME280;53423;49.224;12.074;2022-10-16T00:27:17;97757.06;;;15.86;77.41
2841;BME280;53423;49.224;12.074;2022-10-16T00:29:48;97758.72;;;15.87;76.77
2841;BME280;53423;49.224;12.074;2022-10-16T00:32:16;97760.56;;;15.93;76.77
2841;BME280;53423;49.224;12.074;2022-10-16T00:34:44;97750.63;;;15.95;76.85
2841;BME280;53423;49.224;12.074;2022-10-16T00:37:13;97751.47;;;16.02;76.47
2841;BME280;53423;49.224;12.074;2022-10-16T00:39:42;97747.97;;;15.95;76.41
2841;BME280;53423;49.224;12.074;2022-10-16T00:42:14;97739.69;;;15.71;77.74
2841;BME280;53423;49.224;12.074;2022-10-16T00:44:46;97745.38;;;15.68;78.37
2841;BME280;53423;49.224;12.074;2022-10-16T00:47:19;97744.44;;;15.82;77.13
2841;BME280;53423;49.224;12.074;2022-10-16T00:49:50;97735.16;;;15.92;76.49
2841;BME280;53423;49.224;12.074;2022-10-16T00:52:19;97740.31;;;16.07;76.45
2841;BME280;53423;49.224;12.074;2022-10-16T00:54:49;97744.75;;;16.06;75.79
2841;BME280;53423;49.224;12.074;2022-10-16T00:57:17;97742.34;;;16.11;75.59
2841;BME280;53423;49.224;12.074;2022-10-16T00:59:46;97748.44;;;16.05;76.01
2841;BME280;53423;49.224;12.074;2022-10-16T01:02:15;97733.75;;;16.03;76.21
2841;BME280;53423;49.224;12.074;2022-10-16T01:04:46;97738.47;;;16.01;76.02
2841;BME280;53423;49.224;12.074;2022-10-16T01:07:21;97746.97;;;15.96;76.28
2841;BME280;53423;49.224;12.074;2022-10-16T01:10:00;97741.09;;;16.01;76.65
2841;BME280;53423;49.224;12.074;2022-10-16T01:12:38;97745.59;;;16.07;76.36
2841;BME280;53423;49.224;12.074;2022-10-16T01:15:17;97736.44;;;16.09;75.96
2841;BME280;53423;49.224;12.074;2022-10-16T01:17:50;97736.63;;;16.08;75.76
2841;BME280;53423;49.224;12.074;2022-10-16T01:20:26;97734.19;;;16.06;76.41
2841;BME280;53423;49.224;12.074;2022-10-16T01:23:10;97743.13;;;15.99;76.57
2841;BME280;53423;49.224;12.074;2022-10-16T01:25:52;97752.91;;;16.05;75.64
2841;BME280;53423;49.224;12.074;2022-10-16T01:28:28;97749.38;;;15.91;76.18
2841;BME280;53423;49.224;12.074;2022-10-16T01:30:58;97763.78;;;15.82;77.23
2841;BME280;53423;49.224;12.074;2022-10-16T01:33:31;97766.88;;;15.92;76.54
2841;BME280;53423;49.224;12.074;2022-10-16T01:36:09;97778.13;;;16.01;76.00
2841;BME280;53423;49.224;12.074;2022-10-16T01:38:39;97783.19;;;15.96;76.63
2841;BME280;53423;49.224;12.074;2022-10-16T01:41:09;97780.34;;;15.97;76.20
2841;BME280;53423;49.224;12.074;2022-10-16T01:43:42;97788.28;;;15.97;76.20
2841;BME280;53423;49.224;12.074;2022-10-16T01:46:13;97778.88;;;15.95;76.80
2841;BME280;53423;49.224;12.074;2022-10-16T01:48:42;97775.28;;;16.02;76.55
2841;BME280;53423;49.224;12.074;2022-10-16T01:51:12;97762.06;;;16.02;76.21
2841;BME280;53423;49.224;12.074;2022-10-16T01:53:45;97771.34;;;15.92;76.15
2841;BME280;53423;49.224;12.074;2022-10-16T01:56:15;97765.91;;;16.00;75.89
2841;BME280;53423;49.224;12.074;2022-10-16T01:58:50;97764.72;;;16.09;75.86
2841;BME280;53423;49.224;12.074;2022-10-16T02:01:20;97768.34;;;16.01;76.37
2841;BME280;53423;49.224;12.074;2022-10-16T02:03:51;97761.44;;;16.00;75.92
2841;BME280;53423;49.224;12.074;2022-10-16T02:06:20;97768.06;;;15.90;76.61
2841;BME280;53423;49.224;12.074;2022-10-16T02:08:49;97773.31;;;15.77;76.55
2841;BME280;53423;49.224;12.074;2022-10-16T02:11:16;97772.91;;;15.80;76.81
2841;BME280;53423;49.224;12.074;2022-10-16T02:13:48;97767.63;;;15.80;77.19
2841;BME280;53423;49.224;12.074;2022-10-16T02:16:18;97772.31;;;15.84;77.38
2841;BME280;53423;49.224;12.074;2022-10-16T02:18:46;97782.56;;;15.66;77.46
2841;BME280;53423;49.224;12.074;2022-10-16T02:21:19;97789.16;;;15.77;76.98
2841;BME280;53423;49.224;12.074;2022-10-16T02:23:55;97777.38;;;15.79;77.30
2841;BME280;53423;49.224;12.074;2022-10-16T02:26:30;97779.00;;;15.80;77.07
2841;BME280;53423;49.224;12.074;2022-10-16T02:29:06;97771.28;;;15.79;77.14
2841;BME280;53423;49.224;12.074;2022-10-16T02:31:35;97785.63;;;15.63;77.62
2841;BME280;53423;49.224;12.074;2022-10-16T02:34:06;97779.81;;;15.47;78.11
2841;BME280;53423;49.224;12.074;2022-10-16T02:36:35;97782.69;;;15.52;78.83
2841;BME280;53423;49.224;12.074;2022-10-16T02:39:04;97788.69;;;15.67;77.38
2841;BME280;53423;49.224;12.074;2022-10-16T02:41:33;97795.78;;;15.66;78.25
2841;BME280;53423;49.224;12.074;2022-10-16T02:44:02;97799.13;;;15.47;78.43
2841;BME280;53423;49.224;12.074;2022-10-16T02:46:30;97797.03;;;15.43;77.96
2841;BME280;53423;49.224;12.074;2022-10-16T02:48:57;97794.50;;;15.56;77.84
2841;BME280;53423;49.224;12.074;2022-10-16T02:51:25;97803.91;;;15.65;78.10
2841;BME280;53423;49.224;12.074;2022-10-16T02:53:53;97810.66;;;15.67;77.91
2841;BME280;53423;49.224;12.074;2022-10-16T02:56:20;97814.28;;;15.66;78.05
2841;BME280;53423;49.224;12.074;2022-10-16T02:58:49;97827.16;;;15.76;77.17
2841;BME280;53423;49.224;12.074;2022-10-16T03:01:18;97813.56;;;15.79;77.42
2841;BME280;53423;49.224;12.074;2022-10-16T03:03:45;97816.09;;;15.66;77.00
2841;BME280;53423;49.224;12.074;2022-10-16T03:06:13;97815.28;;;15.59;78.10
2841;BME280;53423;49.224;12.074;2022-10-16T03:08:41;97802.09;;;15.65;78.37
2841;BME280;53423;49.224;12.074;2022-10-16T03:11:08;97804.38;;;15.75;77.45
2841;BME280;53423;49.224;12.074;2022-10-16T03:13:36;97814.06;;;15.61;77.68
2841;BME280;53423;49.224;12.074;2022-10-16T03:16:04;97815.31;;;15.65;77.41
2841;BME280;53423;49.224;12.074;2022-10-16T03:18:33;97816.41;;;15.77;77.19
2841;BME280;53423;49.224;12.074;2022-10-16T03:21:01;97819.38;;;15.68;77.77
2841;BME280;53423;49.224;12.074;2022-10-16T03:23:28;97819.84;;;15.78;77.65
2841;BME280;53423;49.224;12.074;2022-10-16T03:26:01;97812.59;;;15.86;77.73
2841;BME280;53423;49.224;12.074;2022-10-16T03:28:29;97802.25;;;15.91;77.30
2841;BME280;53423;49.224;12.074;2022-10-16T03:30:56;97813.06;;;15.96;76.01
2841;BME280;53423;49.224;12.074;2022-10-16T03:33:24;97816.50;;;15.90;76.34
2841;BME280;53423;49.224;12.074;2022-10-16T03:35:54;97815.91;;;15.95;76.89
2841;BME280;53423;49.224;12.074;2022-10-16T03:38:22;97815.88;;;15.88;77.02
2841;BME280;53423;49.224;12.074;2022-10-16T03:40:49;97813.41;;;15.87;77.20
2841;BME280;53423;49.224;12.074;2022-10-16T03:43:17;97813.84;;;15.90;77.26
2841;BME280;53423;49.224;12.074;2022-10-16T03:45:45;97807.94;;;15.88;77.45
2841;BME280;53423;49.224;12.074;2022-10-16T03:48:12;97815.47;;;15.91;76.38
2841;BME280;53423;49.224;12.074;2022-10-16T03:50:40;97813.44;;;15.93;75.92
2841;BME280;53423;49.224;12.074;2022-10-16T03:53:10;97817.31;;;15.91;76.04
2841;BME280;53423;49.224;12.074;2022-10-16T03:55:37;97815.06;;;15.94;76.55
2841;BME280;53423;49.224;12.074;2022-10-16T03:58:05;97812.59;;;15.86;76.06
2841;BME280;53423;49.224;12.074;2022-10-16T04:00:33;97816.66;;;15.82;76.92
2841;BME280;53423;49.224;12.074;2022-10-16T04:03:00;97817.41;;;15.76;76.67
2841;BME280;53423;49.224;12.074;2022-10-16T04:05:28;97824.19;;;15.85;76.78
2841;BME280;53423;49.224;12.074;2022-10-16T04:07:56;97827.81;;;15.84;77.14
2841;BME280;53423;49.224;12.074;2022-10-16T04:10:25;97816.53;;;15.69;77.33
2841;BME280;53423;49.224;12.074;2022-10-16T04:12:52;97828.19;;;15.75;77.32
2841;BME280;53423;49.224;12.074;2022-10-16T04:15:22;97824.03;;;15.66;77.61
2841;BME280;53423;49.224;12.074;2022-10-16T04:17:51;97818.19;;;15.70;77.44
2841;BME280;53423;49.224;12.074;2022-10-16T04:20:19;97809.41;;;15.63;77.23
2841;BME280;53423;49.224;12.074;2022-10-16T04:22:46;97807.69;;;15.56;77.70
2841;BME280;53423;49.224;12.074;2022-10-16T04:25:14;97812.75;;;15.78;76.84
2841;BME280;53423;49.224;12.074;2022-10-16T04:27:43;97811.59;;;15.60;76.75
2841;BME280;53423;49.224;12.074;2022-10-16T04:30:11;97817.00;;;15.45;77.08
2841;BME280;53423;49.224;12.074;2022-10-16T04:32:39;97804.97;;;15.43;77.57
2841;BME280;53423;49.224;12.074;2022-10-16T04:35:08;97816.59;;;15.48;77.01
2841;BME280;53423;49.224;12.074;2022-10-16T04:37:35;97833.09;;;15.50;77.04
2841;BME280;53423;49.224;12.074;2022-10-16T04:40:04;97839.81;;;15.53;76.43
2841;BME280;53423;49.224;12.074;2022-10-16T04:42:32;97850.31;;;15.67;75.86
2841;BME280;53423;49.224;12.074;2022-10-16T04:45:01;97854.31;;;15.63;76.53
2841;BME280;53423;49.224;12.074;2022-10-16T04:47:29;97852.50;;;15.64;76.21
2841;BME280;53423;49.224;12.074;2022-10-16T04:49:57;97852.81;;;15.54;76.05
2841;BME280;53423;49.224;12.074;2022-10-16T04:52:25;97850.94;;;15.48;76.54
2841;BME280;53423;49.224;12.074;2022-10-16T04:54:52;97847.88;;;15.45;76.97
2841;BME280;53423;49.224;12.074;2022-10-16T04:57:21;97853.66;;;15.55;77.22
2841;BME280;53423;49.224;12.074;2022-10-16T04:59:50;97850.81;;;15.56;77.07
2841;BME280;53423;49.224;12.074;2022-10-16T05:02:19;97849.22;;;15.62;76.69
2841;BME280;53423;49.224;12.074;2022-10-16T05:04:47;97850.22;;;15.61;76.73
2841;BME280;53423;49.224;12.074;2022-10-16T05:07:14;97844.94;;;15.61;76.26
2841;BME280;53423;49.224;12.074;2022-10-16T05:09:42;97852.13;;;15.67;76.87
2841;BME280;53423;49.224;12.074;2022-10-16T05:12:10;97850.91;;;15.69;76.00
2841;BME280;53423;49.224;12.074;2022-10-16T05:14:38;97852.47;;;15.57;76.88
2841;BME280;53423;49.224;12.074;2022-10-16T05:17:06;97859.16;;;15.60;77.26
2841;BME280;53423;49.224;12.074;2022-10-16T05:19:35;97854.47;;;15.55;77.35
2841;BME280;53423;49.224;12.074;2022-10-16T05:22:02;97857.22;;;15.68;76.10
2841;BME280;53423;49.224;12.074;2022-10-16T05:24:30;97864.56;;;15.73;75.82
2841;BME280;53423;49.224;12.074;2022-10-16T05:26:58;97851.69;;;15.63;76.31
2841;BME280;53423;49.224;12.074;2022-10-16T05:29:26;97855.91;;;15.37;77.44
2841;BME280;53423;49.224;12.074;2022-10-16T05:31:53;97856.03;;;15.50;76.98
2841;BME280;53423;49.224;12.074;2022-10-16T05:34:21;97846.94;;;15.52;76.75
2841;BME280;53423;49.224;12.074;2022-10-16T05:36:50;97851.44;;;15.58;76.08
2841;BME280;53423;49.224;12.074;2022-10-16T05:39:18;97850.31;;;15.67;76.64
2841;BME280;53423;49.224;12.074;2022-10-16T05:41:46;97860.28;;;15.72;75.78
2841;BME280;53423;49.224;12.074;2022-10-16T05:44:13;97858.59;;;15.64;75.85
2841;BME280;53423;49.224;12.074;2022-10-16T05:46:41;97859.84;;;15.68;76.31
2841;BME280;53423;49.224;12.074;2022-10-16T05:49:09;97852.75;;;15.69;76.65
2841;BME280;53423;49.224;12.074;2022-10-16T05:51:36;97841.16;;;15.70;76.24
2841;BME280;53423;49.224;12.074;2022-10-16T05:54:05;97833.22;;;15.70;76.15
2841;BME280;53423;49.224;12.074;2022-10-16T05:56:33;97835.31;;;15.81;76.43
2841;BME280;53423;49.224;12.074;2022-10-16T05:59:03;97833.94;;;15.85;76.10
2841;BME280;53423;49.224;12.074;2022-10-16T06:01:31;97837.31;;;15.72;76.17
2841;BME280;53423;49.224;12.074;2022-10-16T06:03:58;97850.34;;;15.74;75.55
2841;BME280;53423;49.224;12.074;2022-10-16T06:06:28;97850.31;;;15.67;76.44
2841;BME280;53423;49.224;12.074;2022-10-16T06:08:56;97851.84;;;15.89;76.56
2841;BME280;53423;49.224;12.074;2022-10-16T06:11:29;97858.72;;;16.11;74.75
2841;BME280;53423;49.224;12.074;2022-10-16T06:13:58;97865.38;;;16.01;74.77
2841;BME280;53423;49.224;12.074;2022-10-16T06:16:28;97878.97;;;15.98;75.59
2841;BME280;53423;49.224;12.074;2022-10-16T06:18:56;97874.22;;;15.87;75.18
2841;BME280;53423;49.224;12.074;2022-10-16T06:21:26;97879.50;;;15.87;75.58
2841;BME280;53423;49.224;12.074;2022-10-16T06:23:56;97895.63;;;15.92;76.01
2841;BME280;53423;49.224;12.074;2022-10-16T06:26:27;97890.00;;;16.08;74.63
2841;BME280;53423;49.224;12.074;2022-10-16T06:28:55;97902.72;;;16.19;74.20
2841;BME280;53423;49.224;12.074;2022-10-16T06:31:24;97902.94;;;16.24;73.73
2841;BME280;53423;49.224;12.074;2022-10-16T06:33:54;97909.34;;;16.36;73.44
2841;BME280;53423;49.224;12.074;2022-10-16T06:36:23;97921.00;;;16.48;73.76
2841;BME280;53423;49.224;12.074;2022-10-16T06:38:51;97920.94;;;17.42;70.23
2841;BME280;53423;49.224;12.074;2022-10-16T06:41:20;97923.56;;;17.23;70.86
2841;BME280;53423;49.224;12.074;2022-10-16T06:43:50;97936.53;;;16.98;71.76
2841;BME280;53423;49.224;12.074;2022-10-16T06:46:20;97936.41;;;16.72;72.10
2841;BME280;53423;49.224;12.074;2022-10-16T06:48:48;97937.00;;;17.08;71.20
2841;BME280;53423;49.224;12.074;2022-10-16T06:51:17;97953.78;;;17.35;69.89
2841;BME280;53423;49.224;12.074;2022-10-16T06:53:46;97952.22;;;18.32;67.40
2841;BME280;53423;49.224;12.074;2022-10-16T06:56:31;97956.03;;;19.26;63.82
2841;BME280;53423;49.224;12.074;2022-10-16T06:59:02;97959.06;;;18.85;64.91
2841;BME280;53423;49.224;12.074;2022-10-16T07:01:30;97960.59;;;18.35;66.78
2841;BME280;53423;49.224;12.074;2022-10-16T07:03:58;97961.22;;;18.11;67.05
2841;BME280;53423;49.224;12.074;2022-10-16T07:06:26;97973.06;;;18.22;66.46
2841;BME280;53423;49.224;12.074;2022-10-16T07:08:54;97965.13;;;17.96;67.20
2841;BME280;53423;49.224;12.074;2022-10-16T07:11:23;97968.38;;;18.04;66.77
2841;BME280;53423;49.224;12.074;2022-10-16T07:13:51;97975.91;;;17.75;68.34
2841;BME280;53423;49.224;12.074;2022-10-16T07:16:24;97973.44;;;17.73;68.81
2841;BME280;53423;49.224;12.074;2022-10-16T07:18:53;97972.59;;;17.60;68.71
2841;BME280;53423;49.224;12.074;2022-10-16T07:21:26;97972.41;;;17.74;68.71
2841;BME280;53423;49.224;12.074;2022-10-16T07:23:56;97971.22;;;17.96;67.50
2841;BME280;53423;49.224;12.074;2022-10-16T07:26:25;97972.25;;;18.08;67.98
2841;BME280;53423;49.224;12.074;2022-10-16T07:28:53;97979.38;;;17.69;68.87
2841;BME280;53423;49.224;12.074;2022-10-16T07:31:23;97982.81;;;17.69;68.75
2841;BME280;53423;49.224;12.074;2022-10-16T07:33:51;97989.13;;;17.55;69.55
2841;BME280;53423;49.224;12.074;2022-10-16T07:36:20;97975.28;;;17.73;68.71
2841;BME280;53423;49.224;12.074;2022-10-16T07:38:48;97986.09;;;17.71;69.47
2841;BME280;53423;49.224;12.074;2022-10-16T07:41:20;97988.53;;;17.73;69.31
2841;BME280;53423;49.224;12.074;2022-10-16T07:43:50;97981.09;;;20.36;61.05
2841;BME280;53423;49.224;12.074;2022-10-16T07:46:19;97986.72;;;19.28;63.26
2841;BME280;53423;49.224;12.074;2022-10-16T07:48:49;97983.81;;;19.43;63.11
2841;BME280;53423;49.224;12.074;2022-10-16T07:51:18;97986.56;;;19.17;65.08
2841;BME280;53423;49.224;12.074;2022-10-16T07:53:46;97982.75;;;19.44;62.98
2841;BME280;53423;49.224;12.074;2022-10-16T07:56:15;97981.41;;;19.28;63.68
2841;BME280;53423;49.224;12.074;2022-10-16T07:58:43;97991.19;;;18.77;65.22
2841;BME280;53423;49.224;12.074;2022-10-16T08:01:13;97989.63;;;19.14;64.05
2841;BME280;53423;49.224;12.074;2022-10-16T08:03:41;97999.78;;;18.73;65.76
2841;BME280;53423;49.224;12.074;2022-10-16T08:06:11;98004.47;;;18.77;66.25
2841;BME280;53423;49.224;12.074;2022-10-16T08:08:39;98014.84;;;18.98;66.12
2841;BME280;53423;49.224;12.074;2022-10-16T08:11:06;98016.19;;;19.33;64.97
2841;BME280;53423;49.224;12.074;2022-10-16T08:13:34;98017.53;;;19.42;63.67
2841;BME280;53423;49.224;12.074;2022-10-16T08:16:02;98025.44;;;19.62;64.15
2841;BME280;53423;49.224;12.074;2022-10-16T08:18:34;98022.34;;;19.65;63.34
2841;BME280;53423;49.224;12.074;2022-10-16T08:21:03;98028.91;;;19.12;64.21
2841;BME280;53423;49.224;12.074;2022-10-16T08:23:33;98027.97;;;19.50;62.85
2841;BME280;53423;49.224;12.074;2022-10-16T08:26:04;98028.91;;;19.62;63.04
2841;BME280;53423;49.224;12.074;2022-10-16T08:28:32;98027.06;;;19.63;63.16
2841;BME280;53423;49.224;12.074;2022-10-16T08:31:08;98028.50;;;19.59;64.01
2841;BME280;53423;49.224;12.074;2022-10-16T08:33:36;98033.66;;;18.90;64.12
2841;BME280;53423;49.224;12.074;2022-10-16T08:36:05;98035.09;;;18.86;65.22
2841;BME280;53423;49.224;12.074;2022-10-16T08:38:34;98034.56;;;19.28;64.68
2841;BME280;53423;49.224;12.074;2022-10-16T08:41:15;98026.41;;;19.23;64.68
2841;BME280;53423;49.224;12.074;2022-10-16T08:43:59;98017.81;;;19.72;64.35
2841;BME280;53423;49.224;12.074;2022-10-16T08:46:38;98027.72;;;19.58;63.76
2841;BME280;53423;49.224;12.074;2022-10-16T08:49:16;98025.19;;;20.01;62.76
2841;BME280;53423;49.224;12.074;2022-10-16T08:51:44;98014.22;;;21.26;59.04
2841;BME280;53423;49.224;12.074;2022-10-16T08:54:22;98010.50;;;20.90;58.50
2841;BME280;53423;49.224;12.074;2022-10-16T08:56:54;98006.66;;;21.23;57.88
2841;BME280;53423;49.224;12.074;2022-10-16T08:59:23;97999.28;;;22.25;55.08
2841;BME280;53423;49.224;12.074;2022-10-16T09:01:52;98001.25;;;21.77;54.70
2841;BME280;53423;49.224;12.074;2022-10-16T09:07:28;98007.53;;;22.24;53.97
2841;BME280;53423;49.224;12.074;2022-10-16T09:10:13;98014.19;;;22.90;52.81
2841;BME280;53423;49.224;12.074;2022-10-16T09:12:53;98017.63;;;23.25;51.15
2841;BME280;53423;49.224;12.074;2022-10-16T09:15:29;98019.75;;;23.63;50.85
2841;BME280;53423;49.224;12.074;2022-10-16T09:18:05;98014.38;;;23.35;50.51
2841;BME280;53423;49.224;12.074;2022-10-16T09:20:43;98018.25;;;23.04;51.75
2841;BME280;53423;49.224;12.074;2022-10-16T09:23:18;98033.63;;;22.63;52.40
2841;BME280;53423;49.224;12.074;2022-10-16T09:25:49;98018.03;;;23.57;50.49
2841;BME280;53423;49.224;12.074;2022-10-16T09:28:18;98025.34;;;23.62;52.09
2841;BME280;53423;49.224;12.074;2022-10-16T09:30:46;98017.59;;;23.37;51.52
2841;BME280;53423;49.224;12.074;2022-10-16T09:33:15;98026.34;;;23.32;51.50
2841;BME280;53423;49.224;12.074;2022-10-16T09:35:45;98023.84;;;23.03;51.44
2841;BME280;53423;49.224;12.074;2022-10-16T09:38:26;98026.84;;;23.86;50.15
2841;BME280;53423;49.224;12.074;2022-10-16T09:40:57;98033.69;;;23.14;51.41
2841;BME280;53423;49.224;12.074;2022-10-16T09:43:33;98031.00;;;23.77;50.84
2841;BME280;53423;49.224;12.074;2022-10-16T09:46:03;98038.00;;;23.66;50.59
2841;BME280;53423;49.224;12.074;2022-10-16T09:48:36;98041.81;;;24.26;49.43
2841;BME280;53423;49.224;12.074;2022-10-16T09:51:06;98049.28;;;23.96;49.68
2841;BME280;53423;49.224;12.074;2022-10-16T09:53:44;98047.63;;;23.79;50.08
2841;BME280;53423;49.224;12.074;2022-10-16T09:56:22;98053.31;;;23.82;49.93
2841;BME280;53423;49.224;12.074;2022-10-16T09:58:51;98050.25;;;24.18;48.23
2841;BME280;53423;49.224;12.074;2022-10-16T10:01:20;98054.19;;;24.44;47.55
2841;BME280;53423;49.224;12.074;2022-10-16T10:03:50;98053.69;;;23.74;50.35
2841;BME280;53423;49.224;12.074;2022-10-16T10:06:23;98053.66;;;23.46;49.88
2841;BME280;53423;49.224;12.074;2022-10-16T10:09:00;98054.78;;;22.87;51.47
2841;BME280;53423;49.224;12.074;2022-10-16T10:11:54;98059.25;;;22.52;53.50
2841;BME280;53423;49.224;12.074;2022-10-16T10:14:27;98046.59;;;22.36;53.45
2841;BME280;53423;49.224;12.074;2022-10-16T10:19:40;98046.91;;;22.40;52.89
2841;BME280;53423;49.224;12.074;2022-10-16T10:22:25;98039.91;;;22.80;53.03
2841;BME280;53423;49.224;12.074;2022-10-16T10:24:55;98051.91;;;23.52;52.45
2841;BME280;53423;49.224;12.074;2022-10-16T10:27:32;98044.13;;;22.35;53.25
2841;BME280;53423;49.224;12.074;2022-10-16T10:30:08;98056.31;;;22.19;54.38
2841;BME280;53423;49.224;12.074;2022-10-16T10:32:45;98056.44;;;22.24;54.17
2841;BME280;53423;49.224;12.074;2022-10-16T10:35:16;98049.31;;;21.77;56.31
2841;BME280;53423;49.224;12.074;2022-10-16T10:37:59;98036.41;;;22.68;54.33
2841;BME280;53423;49.224;12.074;2022-10-16T10:40:40;98041.06;;;22.61;55.00
2841;BME280;53423;49.224;12.074;2022-10-16T10:43:20;98037.44;;;23.01;52.83
2841;BME280;53423;49.224;12.074;2022-10-16T10:45:54;98040.44;;;23.16;51.23
2841;BME280;53423;49.224;12.074;2022-10-16T10:48:45;98045.47;;;23.01;53.40
2841;BME280;53423;49.224;12.074;2022-10-16T10:51:23;98042.19;;;23.11;53.50
2841;BME280;53423;49.224;12.074;2022-10-16T10:54:04;98050.41;;;23.44;53.03
2841;BME280;53423;49.224;12.074;2022-10-16T10:56:42;98045.94;;;23.10;53.71
2841;BME280;53423;49.224;12.074;2022-10-16T10:59:30;98050.91;;;23.18;53.11
2841;BME280;53423;49.224;12.074;2022-10-16T11:02:01;98046.50;;;23.23;53.43
2841;BME280;53423;49.224;12.074;2022-10-16T11:04:54;98042.84;;;22.37;54.48
2841;BME280;53423;49.224;12.074;2022-10-16T11:07:27;98051.16;;;22.59;53.91
2841;BME280;53423;49.224;12.074;2022-10-16T11:10:01;98045.63;;;22.19;55.95
2841;BME280;53423;49.224;12.074;2022-10-16T11:12:31;98051.41;;;22.16;55.30
2841;BME280;53423;49.224;12.074;2022-10-16T11:15:11;98036.38;;;21.74;55.61
2841;BME280;53423;49.224;12.074;2022-10-16T11:17:42;98036.81;;;21.89;57.12
2841;BME280;53423;49.224;12.074;2022-10-16T11:20:16;98034.22;;;21.82;56.21
2841;BME280;53423;49.224;12.074;2022-10-16T11:22:49;98040.44;;;21.76;56.74
2841;BME280;53423;49.224;12.074;2022-10-16T11:25:21;98053.75;;;21.65;56.94
2841;BME280;53423;49.224;12.074;2022-10-16T11:27:54;98035.09;;;21.76;57.13
2841;BME280;53423;49.224;12.074;2022-10-16T11:30:27;98034.31;;;21.28;57.07
2841;BME280;53423;49.224;12.074;2022-10-16T11:33:21;98035.34;;;21.45;57.79
2841;BME280;53423;49.224;12.074;2022-10-16T11:35:53;98046.00;;;21.27;57.61
2841;BME280;53423;49.224;12.074;2022-10-16T11:38:28;98042.03;;;21.66;57.66
2841;BME280;53423;49.224;12.074;2022-10-16T11:41:00;98041.59;;;21.69;55.72
2841;BME280;53423;49.224;12.074;2022-10-16T11:43:32;98049.88;;;21.61;56.63
2841;BME280;53423;49.224;12.074;2022-10-16T11:46:11;98035.09;;;21.94;56.47
2841;BME280;53423;49.224;12.074;2022-10-16T11:48:43;98037.16;;;22.34;54.62
2841;BME280;53423;49.224;12.074;2022-10-16T11:51:17;98044.00;;;23.85;51.68
2841;BME280;53423;49.224;12.074;2022-10-16T11:53:54;98041.09;;;23.47;51.45
2841;BME280;53423;49.224;12.074;2022-10-16T11:56:26;98046.13;;;22.51;54.34
2841;BME280;53423;49.224;12.074;2022-10-16T11:58:58;98030.75;;;23.50;51.64
2841;BME280;53423;49.224;12.074;2022-10-16T12:01:33;98029.06;;;24.67;48.61
2841;BME280;53423;49.224;12.074;2022-10-16T12:04:16;98029.41;;;25.25;46.37
2841;BME280;53423;49.224;12.074;2022-10-16T12:06:49;98023.28;;;26.94;43.11
2841;BME280;53423;49.224;12.074;2022-10-16T12:09:22;98017.22;;;24.63;47.53
2841;BME280;53423;49.224;12.074;2022-10-16T12:11:52;98020.22;;;24.16;51.27
2841;BME280;53423;49.224;12.074;2022-10-16T12:14:36;98036.81;;;23.34;52.20
2841;BME280;53423;49.224;12.074;2022-10-16T12:17:33;98034.31;;;23.04;52.69
2841;BME280;53423;49.224;12.074;2022-10-16T12:20:19;98038.84;;;22.58;54.35
2841;BME280;53423;49.224;12.074;2022-10-16T12:22:48;98034.97;;;22.42;55.43
2841;BME280;53423;49.224;12.074;2022-10-16T12:25:21;98034.66;;;22.62;55.69
2841;BME280;53423;49.224;12.074;2022-10-16T12:27:55;98038.47;;;23.12;53.81
2841;BME280;53423;49.224;12.074;2022-10-16T12:30:25;98034.53;;;23.14;53.97
2841;BME280;53423;49.224;12.074;2022-10-16T12:33:02;98032.66;;;23.03;54.14
2841;BME280;53423;49.224;12.074;2022-10-16T12:35:33;98034.97;;;23.23;52.79
2841;BME280;53423;49.224;12.074;2022-10-16T12:38:15;98037.88;;;23.21;55.32
2841;BME280;53423;49.224;12.074;2022-10-16T12:40:46;98038.09;;;23.43;53.53
2841;BME280;53423;49.224;12.074;2022-10-16T12:43:36;98034.16;;;23.22;53.25
2841;BME280;53423;49.224;12.074;2022-10-16T12:46:20;98040.22;;;23.97;51.69
2841;BME280;53423;49.224;12.074;2022-10-16T12:48:51;98036.31;;;24.83;49.19
2841;BME280;53423;49.224;12.074;2022-10-16T12:51:35;98038.31;;;25.30;47.80
2841;BME280;53423;49.224;12.074;2022-10-16T12:54:11;98039.19;;;25.79;47.00
2841;BME280;53423;49.224;12.074;2022-10-16T12:56:47;98031.00;;;25.91;46.18
2841;BME280;53423;49.224;12.074;2022-10-16T12:59:25;98032.31;;;25.88;46.91
2841;BME280;53423;49.224;12.074;2022-10-16T13:02:14;98030.50;;;26.20;45.60
2841;BME280;53423;49.224;12.074;2022-10-16T13:05:02;98033.69;;;26.17;44.94
2841;BME280;53423;49.224;12.074;2022-10-16T13:07:44;98041.50;;;26.19;45.52
2841;BME280;53423;49.224;12.074;2022-10-16T13:10:23;98033.13;;;25.89;51.78
2841;BME280;53423;49.224;12.074;2022-10-16T13:13:13;98034.66;;;26.06;49.23
2841;BME280;53423;49.224;12.074;2022-10-16T13:15:55;98046.84;;;26.14;47.60
2841;BME280;53423;49.224;12.074;2022-10-16T13:18:29;98042.38;;;26.24;47.99
2841;BME280;53423;49.224;12.074;2022-10-16T13:21:09;98045.66;;;26.05;48.42
2841;BME280;53423;49.224;12.074;2022-10-16T13:23:44;98037.47;;;26.21;46.94
2841;BME280;53423;49.224;12.074;2022-10-16T13:26:22;98053.34;;;26.23;45.85
2841;BME280;53423;49.224;12.074;2022-10-16T13:28:59;98048.25;;;26.21;45.44